sensor_id;sensor_type;location;lat;lon;timestamp;pressure;altitude;pressure_sealevel;temperature;humidity
7888;BME280;3989;48.810;9.208;2023-09-19T00:00:06;98377.53;;;17.81;100.00
7888;BME280;3989;48.810;9.208;2023-09-19T00:02:38;98352.19;;;17.59;100.00
7888;BME280;3989;48.810;9.208;2023-09-19T00:05:05;98344.91;;;17.60;100.00
7888;BME280;3989;48.810;9.208;2023-09-19T00:07:33;98361.09;;;17.60;100.00
7888;BME280;3989;48.810;9.208;2023-09-19T00:10:02;98391.16;;;17.75;100.00
7888;BME280;3989;48.810;9.208;2023-09-19T00:12:29;98390.31;;;17.74;100.00
7888;BME280;3989;48.810;9.208;2023-09-19T00:14:58;98399.25;;;17.75;100.00
7888;BME280;3989;48.810;9.208;2023-09-19T00:17:26;98304.47;;;17.07;100.00
7888;BME280;3989;48.810;9.208;2023-09-19T00:19:55;98401.94;;;17.75;100.00
7888;BME280;3989;48.810;9.208;2023-09-19T00:22:22;98181.53;;;16.41;100.00
7888;BME280;3989;48.810;9.208;2023-09-19T00:24:51;98386.69;;;17.69;100.00
7888;BME280;3989;48.810;9.208;2023-09-19T00:27:18;98307.06;;;17.13;100.00
7888;BME280;3989;48.810;9.208;2023-09-19T00:29:44;98365.03;;;17.46;100.00
7888;BME280;3989;48.810;9.208;2023-09-19T00:32:12;98233.56;;;16.53;100.00
7888;BME280;3989;48.810;9.208;2023-09-19T00:34:39;98437.75;;;17.70;100.00
7888;BME280;3989;48.810;9.208;2023-09-19T00:37:07;98359.84;;;17.32;100.00
7888;BME280;3989;48.810;9.208;2023-09-19T00:39:36;98384.19;;;17.44;100.00
7888;BME280;3989;48.810;9.208;2023-09-19T00:42:03;98412.97;;;17.62;100.00
7888;BME280;3989;48.810;9.208;2023-09-19T00:44:30;98376.88;;;17.33;100.00
7888;BME280;3989;48.810;9.208;2023-09-19T00:46:57;98419.28;;;17.56;100.00
7888;BME280;3989;48.810;9.208;2023-09-19T00:49:25;98389.88;;;17.24;100.00
7888;BME280;3989;48.810;9.208;2023-09-19T00:51:52;98268.97;;;16.57;100.00
7888;BME280;3989;48.810;9.208;2023-09-19T00:54:19;98379.78;;;17.20;100.00
7888;BME280;3989;48.810;9.208;2023-09-19T00:56:46;98436.59;;;17.48;100.00
7888;BME280;3989;48.810;9.208;2023-09-19T00:59:14;98432.72;;;17.44;100.00
7888;BME280;3989;48.810;9.208;2023-09-19T01:01:41;98427.91;;;17.35;100.00
7888;BME280;3989;48.810;9.208;2023-09-19T01:04:08;98333.34;;;16.76;100.00
7888;BME280;3989;48.810;9.208;2023-09-19T01:06:36;98396.19;;;17.18;100.00
7888;BME280;3989;48.810;9.208;2023-09-19T01:09:05;98414.63;;;17.33;100.00
7888;BME280;3989;48.810;9.208;2023-09-19T01:11:35;98283.25;;;16.39;100.00
7888;BME280;3989;48.810;9.208;2023-09-19T01:14:14;98453.03;;;17.47;100.00
7888;BME280;3989;48.810;9.208;2023-09-19T01:16:50;98221.19;;;16.04;100.00
7888;BME280;3989;48.810;9.208;2023-09-19T01:22:34;98433.75;;;17.31;100.00
7888;BME280;3989;48.810;9.208;2023-09-19T01:25:19;98457.00;;;17.44;100.00
7888;BME280;3989;48.810;9.208;2023-09-19T01:28:07;98394.72;;;17.04;100.00
7888;BME280;3989;48.810;9.208;2023-09-19T01:30:43;98445.50;;;17.37;100.00
7888;BME280;3989;48.810;9.208;2023-09-19T01:33:10;98442.88;;;17.30;100.00
7888;BME280;3989;48.810;9.208;2023-09-19T01:35:37;98461.06;;;17.35;100.00
7888;BME280;3989;48.810;9.208;2023-09-19T01:38:04;98377.19;;;16.84;100.00
7888;BME280;3989;48.810;9.208;2023-09-19T01:40:39;98457.19;;;17.31;100.00
7888;BME280;3989;48.810;9.208;2023-09-19T01:43:12;98341.31;;;16.53;100.00
7888;BME280;3989;48.810;9.208;2023-09-19T01:45:59;98462.31;;;17.21;100.00
7888;BME280;3989;48.810;9.208;2023-09-19T01:48:35;98399.47;;;16.91;100.00
7888;BME280;3989;48.810;9.208;2023-09-19T01:51:06;98435.47;;;17.26;100.00
7888;BME280;3989;48.810;9.208;2023-09-19T01:53:36;98462.25;;;17.39;100.00
7888;BME280;3989;48.810;9.208;2023-09-19T01:56:08;98398.28;;;16.87;100.00
7888;BME280;3989;48.810;9.208;2023-09-19T01:58:41;98460.84;;;17.37;100.00
7888;BME280;3989;48.810;9.208;2023-09-19T02:01:12;98470.59;;;17.38;100.00
7888;BME280;3989;48.810;9.208;2023-09-19T02:03:43;98460.22;;;17.23;100.00
7888;BME280;3989;48.810;9.208;2023-09-19T02:06:13;98445.38;;;17.02;100.00
7888;BME280;3989;48.810;9.208;2023-09-19T02:08:41;98477.88;;;17.19;100.00
7888;BME280;3989;48.810;9.208;2023-09-19T02:11:07;98484.19;;;17.13;100.00
7888;BME280;3989;48.810;9.208;2023-09-19T02:13:34;98336.69;;;16.24;100.00
7888;BME280;3989;48.810;9.208;2023-09-19T02:16:00;98486.38;;;17.04;100.00
7888;BME280;3989;48.810;9.208;2023-09-19T02:18:31;98324.44;;;15.92;100.00
7888;BME280;3989;48.810;9.208;2023-09-19T02:21:00;98465.47;;;16.70;100.00
7888;BME280;3989;48.810;9.208;2023-09-19T02:23:27;98484.63;;;16.80;100.00
7888;BME280;3989;48.810;9.208;2023-09-19T02:25:55;98486.03;;;16.83;100.00
7888;BME280;3989;48.810;9.208;2023-09-19T02:28:23;98498.81;;;16.87;100.00
7888;BME280;3989;48.810;9.208;2023-09-19T02:30:49;98497.03;;;16.81;100.00
7888;BME280;3989;48.810;9.208;2023-09-19T02:33:16;98507.91;;;16.74;100.00
7888;BME280;3989;48.810;9.208;2023-09-19T02:35:44;98447.34;;;16.41;100.00
7888;BME280;3989;48.810;9.208;2023-09-19T02:38:11;98403.78;;;16.07;100.00
7888;BME280;3989;48.810;9.208;2023-09-19T02:40:38;98495.47;;;16.55;100.00
7888;BME280;3989;48.810;9.208;2023-09-19T02:43:05;98471.25;;;16.31;100.00
7888;BME280;3989;48.810;9.208;2023-09-19T02:45:33;98497.59;;;16.47;100.00
7888;BME280;3989;48.810;9.208;2023-09-19T02:48:00;98496.19;;;16.44;100.00
7888;BME280;3989;48.810;9.208;2023-09-19T02:50:28;98504.47;;;16.43;100.00
7888;BME280;3989;48.810;9.208;2023-09-19T02:52:56;98519.91;;;16.54;100.00
7888;BME280;3989;48.810;9.208;2023-09-19T02:55:24;98433.25;;;16.20;100.00
7888;BME280;3989;48.810;9.208;2023-09-19T02:57:53;98513.97;;;16.88;100.00
7888;BME280;3989;48.810;9.208;2023-09-19T03:00:21;98509.78;;;16.92;100.00
7888;BME280;3989;48.810;9.208;2023-09-19T03:02:48;98520.94;;;16.96;100.00
7888;BME280;3989;48.810;9.208;2023-09-19T03:05:16;98509.69;;;16.99;100.00
7888;BME280;3989;48.810;9.208;2023-09-19T03:07:43;98478.19;;;16.81;100.00
7888;BME280;3989;48.810;9.208;2023-09-19T03:10:13;98498.63;;;16.89;100.00
7888;BME280;3989;48.810;9.208;2023-09-19T03:12:40;98500.63;;;16.93;100.00
7888;BME280;3989;48.810;9.208;2023-09-19T03:15:08;98394.38;;;16.35;100.00
7888;BME280;3989;48.810;9.208;2023-09-19T03:17:35;98518.44;;;17.12;100.00
7888;BME280;3989;48.810;9.208;2023-09-19T03:20:02;98491.03;;;16.97;100.00
7888;BME280;3989;48.810;9.208;2023-09-19T03:22:29;98513.72;;;17.08;100.00
7888;BME280;3989;48.810;9.208;2023-09-19T03:24:56;98484.69;;;16.92;100.00
7888;BME280;3989;48.810;9.208;2023-09-19T03:27:25;98503.97;;;17.07;100.00
7888;BME280;3989;48.810;9.208;2023-09-19T03:29:52;98460.66;;;16.72;100.00
7888;BME280;3989;48.810;9.208;2023-09-19T03:32:19;98443.75;;;16.65;100.00
7888;BME280;3989;48.810;9.208;2023-09-19T03:34:45;98493.72;;;16.97;100.00
7888;BME280;3989;48.810;9.208;2023-09-19T03:37:13;98520.06;;;17.13;100.00
7888;BME280;3989;48.810;9.208;2023-09-19T03:39:40;98512.59;;;17.15;100.00
7888;BME280;3989;48.810;9.208;2023-09-19T03:42:07;98528.53;;;17.17;100.00
7888;BME280;3989;48.810;9.208;2023-09-19T03:44:35;98363.47;;;16.19;100.00
7888;BME280;3989;48.810;9.208;2023-09-19T03:47:02;98518.44;;;17.12;100.00
7888;BME280;3989;48.810;9.208;2023-09-19T03:49:30;98424.81;;;16.53;100.00
7888;BME280;3989;48.810;9.208;2023-09-19T03:51:56;98391.38;;;16.24;100.00
7888;BME280;3989;48.810;9.208;2023-09-19T03:54:23;98507.38;;;17.02;100.00
7888;BME280;3989;48.810;9.208;2023-09-19T03:56:50;98503.09;;;16.95;100.00
7888;BME280;3989;48.810;9.208;2023-09-19T03:59:16;98437.84;;;16.56;100.00
7888;BME280;3989;48.810;9.208;2023-09-19T04:01:45;98476.69;;;16.85;100.00
7888;BME280;3989;48.810;9.208;2023-09-19T04:04:12;98533.41;;;17.08;100.00
7888;BME280;3989;48.810;9.208;2023-09-19T04:06:39;98479.09;;;16.75;100.00
7888;BME280;3989;48.810;9.208;2023-09-19T04:09:06;98465.31;;;16.65;100.00
7888;BME280;3989;48.810;9.208;2023-09-19T04:11:33;98441.41;;;16.50;100.00
7888;BME280;3989;48.810;9.208;2023-09-19T04:14:03;98509.59;;;16.87;100.00
7888;BME280;3989;48.810;9.208;2023-09-19T04:16:30;98518.69;;;16.93;100.00
7888;BME280;3989;48.810;9.208;2023-09-19T04:18:58;98504.75;;;16.59;100.00
7888;BME280;3989;48.810;9.208;2023-09-19T04:21:25;98503.13;;;16.52;100.00
7888;BME280;3989;48.810;9.208;2023-09-19T04:23:53;98534.69;;;16.69;100.00
7888;BME280;3989;48.810;9.208;2023-09-19T04:26:20;98482.78;;;16.38;100.00
7888;BME280;3989;48.810;9.208;2023-09-19T04:28:47;98452.38;;;16.12;100.00
7888;BME280;3989;48.810;9.208;2023-09-19T04:31:14;98538.28;;;16.63;100.00
7888;BME280;3989;48.810;9.208;2023-09-19T04:33:40;98513.50;;;16.55;100.00
7888;BME280;3989;48.810;9.208;2023-09-19T04:36:10;98537.78;;;16.73;100.00
7888;BME280;3989;48.810;9.208;2023-09-19T04:38:38;98507.38;;;16.66;100.00
7888;BME280;3989;48.810;9.208;2023-09-19T04:41:05;98536.81;;;16.86;100.00
7888;BME280;3989;48.810;9.208;2023-09-19T04:43:31;98546.16;;;17.01;100.00
7888;BME280;3989;48.810;9.208;2023-09-19T04:45:58;98511.22;;;16.76;100.00
7888;BME280;3989;48.810;9.208;2023-09-19T04:48:25;98546.06;;;17.08;100.00
7888;BME280;3989;48.810;9.208;2023-09-19T04:50:54;98485.25;;;16.64;100.00
7888;BME280;3989;48.810;9.208;2023-09-19T04:53:22;98567.19;;;17.11;100.00
7888;BME280;3989;48.810;9.208;2023-09-19T04:55:52;98451.56;;;16.48;100.00
7888;BME280;3989;48.810;9.208;2023-09-19T04:58:20;98540.75;;;17.01;100.00
7888;BME280;3989;48.810;9.208;2023-09-19T05:00:47;98562.47;;;17.06;100.00
7888;BME280;3989;48.810;9.208;2023-09-19T05:03:16;98583.06;;;17.01;100.00
7888;BME280;3989;48.810;9.208;2023-09-19T05:05:45;98553.63;;;16.63;100.00
7888;BME280;3989;48.810;9.208;2023-09-19T05:08:12;98498.81;;;16.08;100.00
7888;BME280;3989;48.810;9.208;2023-09-19T05:10:41;98527.97;;;16.11;100.00
7888;BME280;3989;48.810;9.208;2023-09-19T05:13:08;98560.00;;;16.19;100.00
7888;BME280;3989;48.810;9.208;2023-09-19T05:15:34;98558.19;;;16.13;100.00
7888;BME280;3989;48.810;9.208;2023-09-19T05:18:02;98421.41;;;15.22;100.00
7888;BME280;3989;48.810;9.208;2023-09-19T05:20:29;98583.53;;;16.30;100.00
7888;BME280;3989;48.810;9.208;2023-09-19T05:22:59;98591.06;;;16.21;100.00
7888;BME280;3989;48.810;9.208;2023-09-19T05:25:27;98472.16;;;15.50;100.00
7888;BME280;3989;48.810;9.208;2023-09-19T05:27:57;98597.13;;;16.10;100.00
7888;BME280;3989;48.810;9.208;2023-09-19T05:30:26;98506.41;;;15.61;100.00
7888;BME280;3989;48.810;9.208;2023-09-19T05:32:55;98601.69;;;16.10;100.00
7888;BME280;3989;48.810;9.208;2023-09-19T05:35:22;98612.84;;;16.13;100.00
7888;BME280;3989;48.810;9.208;2023-09-19T05:37:50;98614.94;;;16.11;100.00
7888;BME280;3989;48.810;9.208;2023-09-19T05:40:31;98481.03;;;15.13;100.00
7888;BME280;3989;48.810;9.208;2023-09-19T05:42:59;98647.66;;;16.15;100.00
7888;BME280;3989;48.810;9.208;2023-09-19T05:45:29;98610.78;;;15.84;100.00
7888;BME280;3989;48.810;9.208;2023-09-19T05:48:10;98569.97;;;15.56;100.00
7888;BME280;3989;48.810;9.208;2023-09-19T05:50:41;98440.34;;;14.58;100.00
7888;BME280;3989;48.810;9.208;2023-09-19T05:53:22;98420.00;;;14.38;100.00
7888;BME280;3989;48.810;9.208;2023-09-19T05:55:51;98613.88;;;15.50;100.00
7888;BME280;3989;48.810;9.208;2023-09-19T05:58:21;98456.13;;;14.35;100.00
7888;BME280;3989;48.810;9.208;2023-09-19T06:00:50;98566.84;;;15.08;100.00
7888;BME280;3989;48.810;9.208;2023-09-19T06:03:24;98446.19;;;14.29;100.00
7888;BME280;3989;48.810;9.208;2023-09-19T06:05:53;98530.59;;;14.73;100.00
7888;BME280;3989;48.810;9.208;2023-09-19T06:08:22;98465.66;;;14.18;100.00
7888;BME280;3989;48.810;9.208;2023-09-19T06:10:49;98533.75;;;14.50;100.00
7888;BME280;3989;48.810;9.208;2023-09-19T06:13:17;98676.75;;;15.36;100.00
7888;BME280;3989;48.810;9.208;2023-09-19T06:15:48;98469.78;;;13.88;100.00
7888;BME280;3989;48.810;9.208;2023-09-19T06:18:15;98506.31;;;14.15;100.00
7888;BME280;3989;48.810;9.208;2023-09-19T06:20:57;98606.44;;;14.48;100.00
7888;BME280;3989;48.810;9.208;2023-09-19T06:23:25;98539.31;;;14.09;100.00
7888;BME280;3989;48.810;9.208;2023-09-19T06:25:54;98468.56;;;13.71;100.00
7888;BME280;3989;48.810;9.208;2023-09-19T06:28:22;98634.72;;;14.77;100.00
7888;BME280;3989;48.810;9.208;2023-09-19T06:30:52;98680.97;;;15.18;100.00
7888;BME280;3989;48.810;9.208;2023-09-19T06:33:33;98607.00;;;14.83;100.00
7888;BME280;3989;48.810;9.208;2023-09-19T06:36:05;98535.78;;;14.54;100.00
7888;BME280;3989;48.810;9.208;2023-09-19T06:38:32;98675.28;;;15.53;100.00
7888;BME280;3989;48.810;9.208;2023-09-19T06:41:01;98599.91;;;15.15;100.00
7888;BME280;3989;48.810;9.208;2023-09-19T06:43:29;98554.13;;;14.84;100.00
7888;BME280;3989;48.810;9.208;2023-09-19T06:46:01;98631.31;;;15.21;100.00
7888;BME280;3989;48.810;9.208;2023-09-19T06:48:29;98645.72;;;15.46;100.00
7888;BME280;3989;48.810;9.208;2023-09-19T06:50:57;98574.66;;;15.22;100.00
7888;BME280;3989;48.810;9.208;2023-09-19T06:53:28;98572.56;;;15.31;100.00
7888;BME280;3989;48.810;9.208;2023-09-19T06:55:57;98571.78;;;15.62;100.00
7888;BME280;3989;48.810;9.208;2023-09-19T06:58:24;98575.88;;;15.71;100.00
7888;BME280;3989;48.810;9.208;2023-09-19T07:00:50;98654.38;;;16.31;100.00
7888;BME280;3989;48.810;9.208;2023-09-19T07:03:29;98616.28;;;16.27;100.00
7888;BME280;3989;48.810;9.208;2023-09-19T07:06:01;98485.31;;;15.58;100.00
7888;BME280;3989;48.810;9.208;2023-09-19T07:08:30;98528.91;;;15.98;100.00
7888;BME280;3989;48.810;9.208;2023-09-19T07:10:56;98711.25;;;17.21;100.00
7888;BME280;3989;48.810;9.208;2023-09-19T07:13:23;98734.63;;;17.27;100.00
7888;BME280;3989;48.810;9.208;2023-09-19T07:15:50;98604.66;;;16.51;100.00
7888;BME280;3989;48.810;9.208;2023-09-19T07:18:17;98609.25;;;16.51;100.00
7888;BME280;3989;48.810;9.208;2023-09-19T07:20:46;98615.88;;;16.48;100.00
7888;BME280;3989;48.810;9.208;2023-09-19T07:23:15;98737.00;;;17.17;100.00
7888;BME280;3989;48.810;9.208;2023-09-19T07:25:44;98692.38;;;16.97;100.00
7888;BME280;3989;48.810;9.208;2023-09-19T07:28:11;98737.84;;;17.36;100.00
7888;BME280;3989;48.810;9.208;2023-09-19T07:30:38;98705.47;;;17.18;100.00
7888;BME280;3989;48.810;9.208;2023-09-19T07:33:06;98738.81;;;17.23;100.00
7888;BME280;3989;48.810;9.208;2023-09-19T07:35:36;98618.13;;;16.58;100.00
7888;BME280;3989;48.810;9.208;2023-09-19T07:38:07;98733.84;;;17.20;100.00
7888;BME280;3989;48.810;9.208;2023-09-19T07:40:33;98748.69;;;17.29;100.00
7888;BME280;3989;48.810;9.208;2023-09-19T07:43:03;98731.09;;;17.27;100.00
7888;BME280;3989;48.810;9.208;2023-09-19T07:45:37;98675.47;;;16.90;100.00
7888;BME280;3989;48.810;9.208;2023-09-19T07:48:04;98729.16;;;17.34;100.00
7888;BME280;3989;48.810;9.208;2023-09-19T07:50:33;98766.19;;;17.45;100.00
7888;BME280;3989;48.810;9.208;2023-09-19T07:53:02;98615.53;;;16.69;100.00
7888;BME280;3989;48.810;9.208;2023-09-19T07:55:33;98757.19;;;17.51;100.00
7888;BME280;3989;48.810;9.208;2023-09-19T07:58:01;98755.38;;;17.70;100.00
7888;BME280;3989;48.810;9.208;2023-09-19T08:00:30;98727.00;;;17.43;100.00
7888;BME280;3989;48.810;9.208;2023-09-19T08:03:00;98764.59;;;17.62;100.00
7888;BME280;3989;48.810;9.208;2023-09-19T08:05:29;98700.72;;;17.13;100.00
7888;BME280;3989;48.810;9.208;2023-09-19T08:07:56;98650.97;;;16.91;100.00
7888;BME280;3989;48.810;9.208;2023-09-19T08:10:42;98743.78;;;17.45;100.00
7888;BME280;3989;48.810;9.208;2023-09-19T08:13:29;98567.25;;;16.68;100.00
7888;BME280;3989;48.810;9.208;2023-09-19T08:16:09;98703.81;;;17.60;100.00
7888;BME280;3989;48.810;9.208;2023-09-19T08:18:37;98667.63;;;17.43;100.00
7888;BME280;3989;48.810;9.208;2023-09-19T08:21:05;98760.06;;;18.11;100.00
7888;BME280;3989;48.810;9.208;2023-09-19T08:23:47;98715.63;;;17.95;100.00
7888;BME280;3989;48.810;9.208;2023-09-19T08:26:24;98606.41;;;17.43;100.00
7888;BME280;3989;48.810;9.208;2023-09-19T08:29:05;98678.56;;;17.84;100.00
7888;BME280;3989;48.810;9.208;2023-09-19T08:31:47;98770.44;;;18.44;100.00
7888;BME280;3989;48.810;9.208;2023-09-19T08:34:27;98767.41;;;18.52;100.00
7888;BME280;3989;48.810;9.208;2023-09-19T08:37:02;98684.34;;;17.88;100.00
7888;BME280;3989;48.810;9.208;2023-09-19T08:39:43;98594.97;;;17.48;100.00
7888;BME280;3989;48.810;9.208;2023-09-19T08:42:47;98766.66;;;18.74;100.00
7888;BME280;3989;48.810;9.208;2023-09-19T08:45:16;98721.97;;;18.30;100.00
7888;BME280;3989;48.810;9.208;2023-09-19T08:48:02;98666.38;;;18.11;100.00
7888;BME280;3989;48.810;9.208;2023-09-19T08:50:49;98784.97;;;19.02;100.00
7888;BME280;3989;48.810;9.208;2023-09-19T08:53:27;98800.25;;;19.20;100.00
7888;BME280;3989;48.810;9.208;2023-09-19T08:56:08;98650.50;;;18.45;100.00
7888;BME280;3989;48.810;9.208;2023-09-19T08:58:46;98657.84;;;18.91;100.00
7888;BME280;3989;48.810;9.208;2023-09-19T09:01:17;98781.13;;;19.68;100.00
7888;BME280;3989;48.810;9.208;2023-09-19T09:03:51;98770.88;;;19.81;100.00
7888;BME280;3989;48.810;9.208;2023-09-19T09:06:18;98774.78;;;19.74;100.00
7888;BME280;3989;48.810;9.208;2023-09-19T09:08:46;98757.09;;;19.83;100.00
7888;BME280;3989;48.810;9.208;2023-09-19T09:11:13;98725.78;;;19.75;100.00
7888;BME280;3989;48.810;9.208;2023-09-19T09:13:41;98715.22;;;19.74;100.00
7888;BME280;3989;48.810;9.208;2023-09-19T09:16:08;98755.47;;;20.22;100.00
7888;BME280;3989;48.810;9.208;2023-09-19T09:18:35;98696.75;;;19.71;100.00
7888;BME280;3989;48.810;9.208;2023-09-19T09:21:02;98806.13;;;20.61;100.00
7888;BME280;3989;48.810;9.208;2023-09-19T09:23:30;98802.75;;;20.42;100.00
7888;BME280;3989;48.810;9.208;2023-09-19T09:25:59;98807.47;;;20.47;100.00
7888;BME280;3989;48.810;9.208;2023-09-19T09:28:29;98808.22;;;20.71;100.00
7888;BME280;3989;48.810;9.208;2023-09-19T09:30:57;98800.06;;;21.16;100.00
7888;BME280;3989;48.810;9.208;2023-09-19T09:33:24;98766.34;;;21.28;100.00
7888;BME280;3989;48.810;9.208;2023-09-19T09:35:53;98770.63;;;21.41;92.71
7888;BME280;3989;48.810;9.208;2023-09-19T09:38:23;98804.94;;;21.85;93.02
7888;BME280;3989;48.810;9.208;2023-09-19T09:40:53;98704.31;;;21.37;89.34
7888;BME280;3989;48.810;9.208;2023-09-19T09:43:26;98740.09;;;21.72;90.67
7888;BME280;3989;48.810;9.208;2023-09-19T09:46:11;98793.69;;;21.77;85.89
7888;BME280;3989;48.810;9.208;2023-09-19T09:49:10;98802.06;;;21.92;78.01
7888;BME280;3989;48.810;9.208;2023-09-19T09:51:45;98803.78;;;21.81;82.36
7888;BME280;3989;48.810;9.208;2023-09-19T09:54:16;98796.94;;;21.95;79.21
7888;BME280;3989;48.810;9.208;2023-09-19T09:56:53;98806.44;;;21.76;75.77
7888;BME280;3989;48.810;9.208;2023-09-19T09:59:43;98765.00;;;21.48;74.22
7888;BME280;3989;48.810;9.208;2023-09-19T10:02:13;98784.16;;;21.58;76.45
7888;BME280;3989;48.810;9.208;2023-09-19T10:04:40;98807.66;;;21.69;78.16
7888;BME280;3989;48.810;9.208;2023-09-19T10:07:24;98785.00;;;21.41;77.79
7888;BME280;3989;48.810;9.208;2023-09-19T10:09:53;98773.16;;;21.14;83.26
7888;BME280;3989;48.810;9.208;2023-09-19T10:12:25;98733.84;;;21.17;78.17
7888;BME280;3989;48.810;9.208;2023-09-19T10:14:57;98774.72;;;21.82;76.50
7888;BME280;3989;48.810;9.208;2023-09-19T10:17:28;98797.53;;;22.19;75.54
7888;BME280;3989;48.810;9.208;2023-09-19T10:19:56;98799.44;;;21.97;73.04
7888;BME280;3989;48.810;9.208;2023-09-19T10:22:24;98798.66;;;22.02;73.54
7888;BME280;3989;48.810;9.208;2023-09-19T10:24:53;98790.19;;;21.98;66.10
7888;BME280;3989;48.810;9.208;2023-09-19T10:27:21;98761.13;;;21.60;71.57
7888;BME280;3989;48.810;9.208;2023-09-19T10:29:52;98794.69;;;21.71;75.40
7888;BME280;3989;48.810;9.208;2023-09-19T10:32:21;98731.25;;;21.60;74.40
7888;BME280;3989;48.810;9.208;2023-09-19T10:34:50;98784.38;;;21.89;64.53
7888;BME280;3989;48.810;9.208;2023-09-19T10:37:21;98781.66;;;21.89;66.33
7888;BME280;3989;48.810;9.208;2023-09-19T10:39:51;98784.50;;;22.00;62.92
7888;BME280;3989;48.810;9.208;2023-09-19T10:42:19;98779.00;;;21.94;61.77
7888;BME280;3989;48.810;9.208;2023-09-19T10:44:51;98788.06;;;22.00;63.11
7888;BME280;3989;48.810;9.208;2023-09-19T10:47:19;98788.03;;;22.22;62.92
7888;BME280;3989;48.810;9.208;2023-09-19T10:49:46;98785.19;;;22.33;61.87
7888;BME280;3989;48.810;9.208;2023-09-19T10:52:18;98772.84;;;22.47;59.49
7888;BME280;3989;48.810;9.208;2023-09-19T10:54:47;98791.47;;;22.61;55.63
7888;BME280;3989;48.810;9.208;2023-09-19T10:57:19;98791.19;;;22.35;58.17
7888;BME280;3989;48.810;9.208;2023-09-19T11:00:04;98787.97;;;22.38;56.08
7888;BME280;3989;48.810;9.208;2023-09-19T11:03:16;98780.53;;;22.77;53.97
7888;BME280;3989;48.810;9.208;2023-09-19T11:06:01;98765.09;;;22.61;54.74
7888;BME280;3989;48.810;9.208;2023-09-19T11:08:51;98792.59;;;22.86;54.34
7888;BME280;3989;48.810;9.208;2023-09-19T11:11:45;98774.75;;;23.00;53.54
7888;BME280;3989;48.810;9.208;2023-09-19T11:14:41;98789.25;;;23.11;51.94
7888;BME280;3989;48.810;9.208;2023-09-19T11:17:40;98772.31;;;23.04;53.20
7888;BME280;3989;48.810;9.208;2023-09-19T11:20:29;98780.56;;;23.09;52.73
7888;BME280;3989;48.810;9.208;2023-09-19T11:23:22;98769.69;;;23.14;51.71
7888;BME280;3989;48.810;9.208;2023-09-19T11:25:52;98670.06;;;22.76;52.37
7888;BME280;3989;48.810;9.208;2023-09-19T11:28:35;98769.13;;;23.44;49.91
7888;BME280;3989;48.810;9.208;2023-09-19T11:34:40;98751.69;;;23.92;47.72
7888;BME280;3989;48.810;9.208;2023-09-19T11:40:07;98756.56;;;23.80;45.90
7888;BME280;3989;48.810;9.208;2023-09-19T11:42:51;98689.50;;;23.32;46.46
7888;BME280;3989;48.810;9.208;2023-09-19T11:48:28;98756.50;;;24.22;46.04
7888;BME280;3989;48.810;9.208;2023-09-19T11:50:58;98753.16;;;24.10;45.56
7888;BME280;3989;48.810;9.208;2023-09-19T11:53:33;98666.44;;;24.07;44.28
7888;BME280;3989;48.810;9.208;2023-09-19T11:56:06;98748.16;;;24.59;44.84
7888;BME280;3989;48.810;9.208;2023-09-19T11:58:43;98705.81;;;24.36;44.76
7888;BME280;3989;48.810;9.208;2023-09-19T12:01:20;98745.69;;;24.72;44.39
7888;BME280;3989;48.810;9.208;2023-09-19T12:03:57;98710.28;;;24.97;44.57
7888;BME280;3989;48.810;9.208;2023-09-19T12:06:34;98752.78;;;24.58;44.56
7888;BME280;3989;48.810;9.208;2023-09-19T12:09:27;98682.16;;;23.79;44.51
7888;BME280;3989;48.810;9.208;2023-09-19T12:11:59;98735.34;;;23.92;44.54
7888;BME280;3989;48.810;9.208;2023-09-19T12:14:50;98720.22;;;23.64;45.08
7888;BME280;3989;48.810;9.208;2023-09-19T12:17:22;98677.50;;;23.28;46.66
7888;BME280;3989;48.810;9.208;2023-09-19T12:19:50;98703.78;;;23.44;46.12
7888;BME280;3989;48.810;9.208;2023-09-19T12:22:19;98731.13;;;23.27;47.41
7888;BME280;3989;48.810;9.208;2023-09-19T12:24:47;98719.94;;;23.66;47.97
7888;BME280;3989;48.810;9.208;2023-09-19T12:27:16;98713.41;;;23.62;46.00
7888;BME280;3989;48.810;9.208;2023-09-19T12:29:49;98726.28;;;23.81;47.02
7888;BME280;3989;48.810;9.208;2023-09-19T12:32:34;98603.16;;;23.27;47.75
7888;BME280;3989;48.810;9.208;2023-09-19T12:35:07;98699.09;;;23.91;47.25
7888;BME280;3989;48.810;9.208;2023-09-19T12:37:51;98652.75;;;23.29;48.26
7888;BME280;3989;48.810;9.208;2023-09-19T12:40:35;98714.25;;;23.67;46.58
7888;BME280;3989;48.810;9.208;2023-09-19T12:43:13;98630.69;;;23.31;46.93
7888;BME280;3989;48.810;9.208;2023-09-19T12:45:44;98698.25;;;23.81;45.85
7888;BME280;3989;48.810;9.208;2023-09-19T12:48:21;98637.94;;;23.10;47.54
7888;BME280;3989;48.810;9.208;2023-09-19T12:51:01;98635.59;;;23.29;48.09
7888;BME280;3989;48.810;9.208;2023-09-19T12:53:35;98625.88;;;23.43;47.43
7888;BME280;3989;48.810;9.208;2023-09-19T12:56:07;98683.59;;;23.97;46.95
7888;BME280;3989;48.810;9.208;2023-09-19T12:58:59;98709.50;;;24.04;45.99
7888;BME280;3989;48.810;9.208;2023-09-19T13:01:37;98662.81;;;23.86;46.35
7888;BME280;3989;48.810;9.208;2023-09-19T13:04:13;98611.75;;;23.51;44.42
7888;BME280;3989;48.810;9.208;2023-09-19T13:06:43;98613.69;;;23.66;44.84
7888;BME280;3989;48.810;9.208;2023-09-19T13:09:17;98622.81;;;24.01;45.89
7888;BME280;3989;48.810;9.208;2023-09-19T13:11:49;98647.41;;;24.12;44.99
7888;BME280;3989;48.810;9.208;2023-09-19T13:14:22;98635.06;;;23.94;45.59
7888;BME280;3989;48.810;9.208;2023-09-19T13:17:05;98664.91;;;24.51;45.59
7888;BME280;3989;48.810;9.208;2023-09-19T13:19:42;98663.16;;;23.99;44.76
7888;BME280;3989;48.810;9.208;2023-09-19T13:22:36;98699.22;;;24.17;45.79
7888;BME280;3989;48.810;9.208;2023-09-19T13:25:13;98692.56;;;23.92;46.84
7888;BME280;3989;48.810;9.208;2023-09-19T13:27:43;98692.75;;;23.71;47.63
7888;BME280;3989;48.810;9.208;2023-09-19T13:30:14;98647.97;;;23.51;46.62
7888;BME280;3989;48.810;9.208;2023-09-19T13:32:44;98595.38;;;23.41;46.50
7888;BME280;3989;48.810;9.208;2023-09-19T13:35:15;98691.97;;;23.85;46.97
7888;BME280;3989;48.810;9.208;2023-09-19T13:37:58;98600.44;;;22.80;47.63
7888;BME280;3989;48.810;9.208;2023-09-19T13:40:48;98681.16;;;23.43;48.02
7888;BME280;3989;48.810;9.208;2023-09-19T13:43:32;98601.91;;;22.98;46.98
7888;BME280;3989;48.810;9.208;2023-09-19T13:46:01;98681.63;;;23.35;47.86
7888;BME280;3989;48.810;9.208;2023-09-19T13:48:42;98646.44;;;23.24;48.64
7888;BME280;3989;48.810;9.208;2023-09-19T13:51:08;98664.88;;;23.53;49.14